createdAt,value
2023-02-12T00:01:17.637Z,7.70
2023-02-12T00:03:45.594Z,7.70
2023-02-12T00:06:15.925Z,7.80
2023-02-12T00:08:44.338Z,7.80
2023-02-12T00:11:14.013Z,8.50
2023-02-12T00:13:42.460Z,7.80
2023-02-12T00:16:14.673Z,7.80
2023-02-12T00:18:42.997Z,7.80
2023-02-12T00:21:10.998Z,7.70
2023-02-12T00:23:41.138Z,7.70
2023-02-12T00:26:10.321Z,7.60
2023-02-12T00:28:38.668Z,9.10
2023-02-12T00:31:07.960Z,7.50
2023-02-12T00:33:37.309Z,7.70
2023-02-12T00:36:06.000Z,7.70
2023-02-12T00:38:34.310Z,7.70
2023-02-12T00:41:02.559Z,7.70
2023-02-12T00:43:30.403Z,7.70
2023-02-12T00:45:58.831Z,7.70
2023-02-12T00:48:26.955Z,7.70
2023-02-12T00:50:56.164Z,7.70
2023-02-12T00:53:24.063Z,7.70
2023-02-12T00:55:51.979Z,7.70
2023-02-12T00:58:19.895Z,7.70
2023-02-12T01:00:47.807Z,7.70
2023-02-12T01:03:16.024Z,7.70
2023-02-12T01:05:44.359Z,7.90
2023-02-12T01:08:15.438Z,7.70
2023-02-12T01:10:44.064Z,8.90
2023-02-12T01:13:14.061Z,7.60
2023-02-12T01:15:42.571Z,7.60
2023-02-12T01:18:10.942Z,7.60
2023-02-12T01:20:40.641Z,7.60
2023-02-12T01:23:08.639Z,7.60
2023-02-12T01:25:39.568Z,7.60
2023-02-12T01:28:07.464Z,7.60
2023-02-12T01:30:35.389Z,7.50
2023-02-12T01:33:03.512Z,7.50
2023-02-12T01:35:31.400Z,7.50
2023-02-12T01:37:59.484Z,7.50
2023-02-12T01:40:27.359Z,7.50
2023-02-12T01:42:56.572Z,7.50
2023-02-12T01:45:54.560Z,7.50
2023-02-12T01:48:26.917Z,7.50
2023-02-12T01:50:56.817Z,7.50
2023-02-12T01:53:29.824Z,7.50
2023-02-12T01:56:01.296Z,7.40
2023-02-12T01:58:35.140Z,7.40
2023-02-12T02:01:04.813Z,7.30
2023-02-12T02:03:33.726Z,7.40
2023-02-12T02:06:06.202Z,7.40
2023-02-12T02:08:35.206Z,7.40
2023-02-12T02:11:23.146Z,7.40
2023-02-12T02:14:10.401Z,7.40
2023-02-12T02:16:39.551Z,7.30
2023-02-12T02:19:13.453Z,7.40
2023-02-12T02:22:03.133Z,7.30
2023-02-12T02:24:54.406Z,7.30
2023-02-12T02:27:30.604Z,7.30
2023-02-12T02:30:30.562Z,7.30
2023-02-12T02:33:08.677Z,7.30
2023-02-12T02:35:42.622Z,7.30
2023-02-12T02:38:22.007Z,7.30
2023-02-12T02:40:56.604Z,7.30
2023-02-12T02:43:30.137Z,7.20
2023-02-12T02:46:05.614Z,7.20
2023-02-12T02:48:37.291Z,7.90
2023-02-12T02:51:09.377Z,7.20
2023-02-12T02:53:41.844Z,7.20
2023-02-12T02:56:15.404Z,7.20
2023-02-12T02:58:46.173Z,7.20
2023-02-12T03:01:21.373Z,7.00
2023-02-12T03:03:54.810Z,7.40
2023-02-12T03:06:28.584Z,7.20
2023-02-12T03:08:59.687Z,7.20
2023-02-12T03:11:30.845Z,7.20
2023-02-12T03:14:03.768Z,7.20
2023-02-12T03:16:35.909Z,7.20
2023-02-12T03:19:07.851Z,7.10
2023-02-12T03:21:42.120Z,7.20
2023-02-12T03:24:16.322Z,8.90
2023-02-12T03:26:48.098Z,7.20
2023-02-12T03:29:16.604Z,7.60
2023-02-12T03:31:59.530Z,7.10
2023-02-12T03:34:33.522Z,7.10
2023-02-12T03:37:06.380Z,7.20
2023-02-12T03:39:40.517Z,7.10
2023-02-12T03:42:14.260Z,7.10
2023-02-12T03:44:51.893Z,7.10
2023-02-12T03:47:26.423Z,7.10
2023-02-12T03:50:01.195Z,7.10
2023-02-12T03:52:31.283Z,7.10
2023-02-12T03:54:59.502Z,7.00
2023-02-12T03:57:32.188Z,7.10
2023-02-12T04:00:03.527Z,7.00
2023-02-12T04:02:32.930Z,7.00
2023-02-12T04:05:06.134Z,7.00
2023-02-12T04:07:34.657Z,7.00
2023-02-12T04:10:02.592Z,7.00
2023-02-12T04:12:40.185Z,7.00
2023-02-12T04:15:27.374Z,7.00
2023-02-12T04:18:04.060Z,7.00
2023-02-12T04:20:42.993Z,7.00
2023-02-12T04:23:20.666Z,7.00
2023-02-12T04:25:59.043Z,7.00
2023-02-12T04:28:35.296Z,7.00
2023-02-12T04:31:07.328Z,7.00
2023-02-12T04:33:45.169Z,7.00
2023-02-12T04:36:17.536Z,7.00
2023-02-12T04:38:51.985Z,7.00
2023-02-12T04:41:20.203Z,7.10
2023-02-12T04:43:48.152Z,7.10
2023-02-12T04:46:16.285Z,7.00
2023-02-12T04:48:52.999Z,7.00
2023-02-12T04:51:20.950Z,7.00
2023-02-12T04:53:49.007Z,7.00
2023-02-12T04:56:16.967Z,7.10
2023-02-12T04:58:45.255Z,7.40
2023-02-12T05:01:13.654Z,7.00
2023-02-12T05:03:41.625Z,7.00
2023-02-12T05:06:11.136Z,7.00
2023-02-12T05:08:39.046Z,7.00
2023-02-12T05:11:07.895Z,7.00
2023-02-12T05:13:36.244Z,6.90
2023-02-12T05:16:05.929Z,6.90
2023-02-12T05:18:34.347Z,6.90
2023-02-12T05:21:03.610Z,6.90
2023-02-12T05:23:34.552Z,6.90
2023-02-12T05:26:04.386Z,6.90
2023-02-12T05:28:32.479Z,6.90
2023-02-12T05:31:02.201Z,6.90
2023-02-12T05:33:30.576Z,6.90
2023-02-12T05:36:05.169Z,8.80
2023-02-12T05:38:34.720Z,6.90
2023-02-12T05:41:03.805Z,6.90
2023-02-12T05:43:32.784Z,6.90
2023-02-12T05:46:01.427Z,6.90
2023-02-12T05:48:30.320Z,7.90
2023-02-12T05:51:03.301Z,6.80
2023-02-12T05:53:31.248Z,7.10
2023-02-12T05:56:10.297Z,6.80
2023-02-12T05:58:38.839Z,6.80
2023-02-12T06:01:11.992Z,6.80
2023-02-12T06:03:39.908Z,6.70
2023-02-12T06:06:08.281Z,6.80
2023-02-12T06:08:36.550Z,6.80
2023-02-12T06:11:05.930Z,6.80
2023-02-12T06:13:35.866Z,6.80
2023-02-12T06:16:04.483Z,6.80
2023-02-12T06:18:32.673Z,6.80
2023-02-12T06:21:00.541Z,6.80
2023-02-12T06:23:28.451Z,6.80
2023-02-12T06:25:58.064Z,6.80
2023-02-12T06:28:26.296Z,6.80
2023-02-12T06:30:55.651Z,6.80
2023-02-12T06:33:23.608Z,6.80
2023-02-12T06:35:51.512Z,8.70
2023-02-12T06:38:19.421Z,6.80
2023-02-12T06:40:47.333Z,6.80
2023-02-12T06:43:15.205Z,6.80
2023-02-12T06:45:43.112Z,6.80
2023-02-12T06:48:12.340Z,6.80
2023-02-12T06:50:40.220Z,6.90
2023-02-12T06:53:08.086Z,7.10
2023-02-12T06:55:36.083Z,6.90
2023-02-12T06:58:03.966Z,6.80
2023-02-12T07:00:31.964Z,6.80
2023-02-12T07:02:59.914Z,6.70
2023-02-12T07:05:29.245Z,6.80
2023-02-12T07:07:57.173Z,6.80
2023-02-12T07:10:25.064Z,6.80
2023-02-12T07:12:52.942Z,6.80
2023-02-12T07:15:20.828Z,6.80
2023-02-12T07:17:48.726Z,6.80
2023-02-12T07:20:16.818Z,6.80
2023-02-12T07:22:46.010Z,6.80
2023-02-12T07:25:13.922Z,6.80
2023-02-12T07:27:41.913Z,6.90
2023-02-12T07:30:10.757Z,6.90
2023-02-12T07:32:38.646Z,6.90
2023-02-12T07:35:07.100Z,6.90
2023-02-12T07:37:35.308Z,7.00
2023-02-12T07:40:04.984Z,7.00
2023-02-12T07:42:32.887Z,7.00
2023-02-12T07:45:00.760Z,7.00
2023-02-12T07:47:28.680Z,8.00
2023-02-12T07:49:56.607Z,7.00
2023-02-12T07:52:24.487Z,7.00
2023-02-12T07:54:52.361Z,7.00
2023-02-12T07:57:21.588Z,8.00
2023-02-12T07:59:49.477Z,7.10
2023-02-12T08:02:17.390Z,7.10
2023-02-12T08:04:45.363Z,7.20
2023-02-12T08:07:13.292Z,7.20
2023-02-12T08:09:41.228Z,7.20
2023-02-12T08:12:09.288Z,7.20
2023-02-12T08:14:38.520Z,7.20
2023-02-12T08:17:06.423Z,7.30
2023-02-12T08:19:34.340Z,7.30
2023-02-12T08:22:03.086Z,7.30
2023-02-12T08:24:31.660Z,7.30
2023-02-12T08:26:59.897Z,7.30
2023-02-12T08:29:30.045Z,7.30
2023-02-12T08:32:01.867Z,7.30
2023-02-12T08:34:31.562Z,7.30
2023-02-12T08:37:00.359Z,7.40
2023-02-12T08:39:31.297Z,7.40
2023-02-12T08:42:00.302Z,7.00
2023-02-12T08:44:28.321Z,7.50
2023-02-12T08:46:56.597Z,7.50
2023-02-12T08:49:27.997Z,7.60
2023-02-12T08:51:57.241Z,7.60
2023-02-12T08:54:27.020Z,8.10
2023-02-12T08:56:56.752Z,7.70
2023-02-12T08:59:24.736Z,7.80
2023-02-12T09:01:54.346Z,7.80
2023-02-12T09:04:25.948Z,7.80
2023-02-12T09:06:54.626Z,7.90
2023-02-12T09:09:22.588Z,8.00
2023-02-12T09:11:50.967Z,8.00
2023-02-12T09:14:23.612Z,9.80
2023-02-12T09:16:53.007Z,8.00
2023-02-12T09:19:21.596Z,8.20
2023-02-12T09:21:55.869Z,8.00
2023-02-12T09:24:24.966Z,8.10
2023-02-12T09:26:52.866Z,8.10
2023-02-12T09:29:20.760Z,8.10
2023-02-12T09:31:48.809Z,8.10
2023-02-12T09:34:16.856Z,8.10
2023-02-12T09:36:44.737Z,8.10
2023-02-12T09:39:13.996Z,9.40
2023-02-12T09:42:10.842Z,8.20
2023-02-12T09:44:47.539Z,8.20
2023-02-12T09:47:22.360Z,8.30
2023-02-12T09:50:12.147Z,8.20
2023-02-12T09:52:40.512Z,8.20
2023-02-12T09:55:15.366Z,8.20
2023-02-12T09:57:44.015Z,8.20
2023-02-12T10:00:17.551Z,8.20
2023-02-12T10:02:45.833Z,8.20
2023-02-12T10:05:18.611Z,8.30
2023-02-12T10:08:06.410Z,8.30
2023-02-12T10:10:47.004Z,8.30
2023-02-12T10:13:26.403Z,8.30
2023-02-12T10:16:03.214Z,8.20
2023-02-12T10:18:55.968Z,8.20
2023-02-12T10:21:40.736Z,8.20
2023-02-12T10:24:42.358Z,8.20
2023-02-12T10:27:16.336Z,8.20
2023-02-12T10:29:45.999Z,8.50
2023-02-12T10:32:24.773Z,8.30
2023-02-12T10:34:54.585Z,8.30
2023-02-12T10:37:29.838Z,9.30
2023-02-12T10:40:02.708Z,8.50
2023-02-12T10:42:39.403Z,8.60
2023-02-12T10:45:14.010Z,8.70
2023-02-12T10:47:42.336Z,8.80
2023-02-12T10:50:20.699Z,8.70
2023-02-12T10:52:53.236Z,8.80
2023-02-12T10:55:27.324Z,8.80
2023-02-12T10:57:57.677Z,8.90
2023-02-12T11:00:28.488Z,8.90
2023-02-12T11:03:06.622Z,8.90
2023-02-12T11:05:36.737Z,8.90
2023-02-12T11:08:05.656Z,8.90
2023-02-12T11:10:37.247Z,9.00
2023-02-12T11:13:07.596Z,9.00
2023-02-12T11:15:46.921Z,9.00
2023-02-12T11:18:25.854Z,9.90
2023-02-12T11:20:56.889Z,8.90
2023-02-12T11:23:27.926Z,8.90
2023-02-12T11:25:59.053Z,8.90
2023-02-12T11:28:29.506Z,8.90
2023-02-12T11:31:00.506Z,8.90
2023-02-12T11:33:34.664Z,8.90
2023-02-12T11:36:07.533Z,9.00
2023-02-12T11:38:38.677Z,9.00
2023-02-12T11:41:24.433Z,9.00
2023-02-12T11:43:54.681Z,8.90
2023-02-12T11:46:25.105Z,9.00
2023-02-12T11:48:54.684Z,9.00
2023-02-12T11:51:26.460Z,9.10
2023-02-12T11:53:56.433Z,9.20
2023-02-12T11:56:24.346Z,9.20
2023-02-12T11:58:55.453Z,9.20
2023-02-12T12:01:29.400Z,9.30
2023-02-12T12:04:03.525Z,9.30
2023-02-12T12:06:35.933Z,9.30
2023-02-12T12:09:08.348Z,9.60
2023-02-12T12:11:44.970Z,9.30
2023-02-12T12:14:23.196Z,9.30
2023-02-12T12:17:14.193Z,9.20
2023-02-12T12:19:54.800Z,9.30
2023-02-12T12:22:32.626Z,8.70
2023-02-12T12:25:10.402Z,9.30
2023-02-12T12:28:03.819Z,9.40
2023-02-12T12:30:44.068Z,9.30
2023-02-12T12:33:18.393Z,9.00
2023-02-12T12:35:52.454Z,9.50
2023-02-12T12:38:28.293Z,9.50
2023-02-12T12:41:04.742Z,9.40
2023-02-12T12:43:46.120Z,10.70
2023-02-12T12:46:37.544Z,9.30
2023-02-12T12:49:25.667Z,9.30
2023-02-12T12:52:12.461Z,9.30
2023-02-12T12:55:02.208Z,9.30
2023-02-12T12:57:45.207Z,9.20
2023-02-12T13:00:34.534Z,9.20
2023-02-12T13:03:31.698Z,9.20
2023-02-12T13:06:30.897Z,9.20
2023-02-12T13:09:24.974Z,9.20
2023-02-12T13:12:13.054Z,9.10
2023-02-12T13:14:47.994Z,9.20
2023-02-12T13:17:24.536Z,9.10
2023-02-12T13:20:03.825Z,9.10
2023-02-12T13:22:37.862Z,9.10
2023-02-12T13:25:17.824Z,9.10
2023-02-12T13:27:48.506Z,9.20
2023-02-12T13:30:23.254Z,9.20
2023-02-12T13:33:00.092Z,9.20
2023-02-12T13:35:31.806Z,9.10
2023-02-12T13:38:01.534Z,9.10
2023-02-12T13:40:31.643Z,9.10
2023-02-12T13:43:07.815Z,9.00
2023-02-12T13:45:45.672Z,9.00
2023-02-12T13:48:33.854Z,9.40
2023-02-12T13:51:10.277Z,8.50
2023-02-12T13:53:53.012Z,8.80
2023-02-12T13:56:35.172Z,9.00
2023-02-12T13:59:03.284Z,8.80
2023-02-12T14:01:46.501Z,8.90
2023-02-12T14:04:31.348Z,8.80
2023-02-12T14:07:06.625Z,8.90
2023-02-12T14:09:38.992Z,8.90
2023-02-12T14:12:09.461Z,8.80
2023-02-12T14:14:40.016Z,9.00
2023-02-12T14:17:43.975Z,9.00
2023-02-12T14:20:29.458Z,9.00
2023-02-12T14:23:26.978Z,9.00
2023-02-12T14:26:06.208Z,9.00
2023-02-12T14:28:50.816Z,8.70
2023-02-12T14:31:39.846Z,9.10
2023-02-12T14:34:47.870Z,9.10
2023-02-12T14:37:37.630Z,9.10
2023-02-12T14:40:31.798Z,9.20
2023-02-12T14:43:03.060Z,9.10
2023-02-12T14:45:36.309Z,9.00
2023-02-12T14:48:05.760Z,9.00
2023-02-12T14:50:42.080Z,9.00
2023-02-12T14:53:27.212Z,9.90
2023-02-12T14:55:56.991Z,9.20
2023-02-12T14:58:28.027Z,9.00
2023-02-12T15:00:57.934Z,9.00
2023-02-12T15:03:32.994Z,9.00
2023-02-12T15:06:08.905Z,9.00
2023-02-12T15:08:44.928Z,9.00
2023-02-12T15:11:29.413Z,9.00
2023-02-12T15:14:02.549Z,9.00
2023-02-12T15:16:44.704Z,10.40
2023-02-12T15:19:23.441Z,9.00
2023-02-12T15:21:54.496Z,9.00
2023-02-12T15:24:24.410Z,9.00
2023-02-12T15:26:54.403Z,8.90
2023-02-12T15:29:26.763Z,8.90
2023-02-12T15:31:56.930Z,8.90
2023-02-12T15:34:27.429Z,8.90
2023-02-12T15:36:59.417Z,8.90
2023-02-12T15:39:28.786Z,8.90
2023-02-12T15:41:56.718Z,8.90
2023-02-12T15:44:28.626Z,8.80
2023-02-12T15:47:03.286Z,8.80
2023-02-12T15:49:34.711Z,8.80
2023-02-12T15:52:05.436Z,8.80
2023-02-12T15:54:33.701Z,8.80
2023-02-12T15:57:02.445Z,10.40
2023-02-12T15:59:31.752Z,8.80
2023-02-12T16:02:02.626Z,10.00
2023-02-12T16:04:32.768Z,8.70
2023-02-12T16:07:02.508Z,8.70
2023-02-12T16:09:32.686Z,8.70
2023-02-12T16:12:02.823Z,10.40
2023-02-12T16:14:40.737Z,8.60
2023-02-12T16:17:21.319Z,8.60
2023-02-12T16:19:55.819Z,9.50
2023-02-12T16:22:28.461Z,8.50
2023-02-12T16:24:57.562Z,8.50
2023-02-12T16:27:28.212Z,8.30
2023-02-12T16:30:00.398Z,8.40
2023-02-12T16:32:31.355Z,8.40
2023-02-12T16:35:02.337Z,9.80
2023-02-12T16:37:49.714Z,8.40
2023-02-12T16:40:37.553Z,8.40
2023-02-12T16:43:24.477Z,8.40
2023-02-12T16:46:04.920Z,8.30
2023-02-12T16:48:39.517Z,8.30
2023-02-12T16:51:07.549Z,8.10
2023-02-12T16:53:53.700Z,8.30
2023-02-12T16:56:23.408Z,8.30
2023-02-12T16:58:55.204Z,8.30
2023-02-12T17:01:26.928Z,8.10
2023-02-12T17:03:55.989Z,8.20
2023-02-12T17:06:26.131Z,8.20
2023-02-12T17:08:54.295Z,8.10
2023-02-12T17:11:24.169Z,8.10
2023-02-12T17:13:53.885Z,8.10
2023-02-12T17:16:32.364Z,8.10
2023-02-12T17:19:00.680Z,8.20
2023-02-12T17:21:32.224Z,8.00
2023-02-12T17:24:00.235Z,8.00
2023-02-12T17:26:28.346Z,8.00
2023-02-12T17:28:56.510Z,8.00
2023-02-12T17:31:26.019Z,8.00
2023-02-12T17:33:53.957Z,8.00
2023-02-12T17:36:21.811Z,7.90
2023-02-12T17:38:49.964Z,7.90
2023-02-12T17:41:18.598Z,7.90
2023-02-12T17:43:48.099Z,7.90
2023-02-12T17:46:20.418Z,7.90
2023-02-12T17:48:50.011Z,8.00
2023-02-12T17:51:18.399Z,7.90
2023-02-12T17:53:46.577Z,7.80
2023-02-12T17:56:17.204Z,7.80
2023-02-12T17:58:46.214Z,7.80
2023-02-12T18:01:16.745Z,7.80
2023-02-12T18:03:44.735Z,7.80
2023-02-12T18:06:16.564Z,7.80
2023-02-12T18:08:44.947Z,7.80
2023-02-12T18:11:13.259Z,7.80
2023-02-12T18:13:42.428Z,7.20
2023-02-12T18:16:12.022Z,7.30
2023-02-12T18:18:41.301Z,9.10
2023-02-12T18:21:12.536Z,7.70
2023-02-12T18:23:41.858Z,7.70
2023-02-12T18:26:12.533Z,7.70
2023-02-12T18:28:41.137Z,8.30
2023-02-12T18:31:10.499Z,9.00
2023-02-12T18:33:39.533Z,7.60
2023-02-12T18:36:10.005Z,9.30
2023-02-12T18:38:39.655Z,7.60
2023-02-12T18:41:10.906Z,7.60
2023-02-12T18:43:39.107Z,7.60
2023-02-12T18:46:08.163Z,8.10
2023-02-12T18:48:36.669Z,7.50
2023-02-12T18:51:06.503Z,7.50
2023-02-12T18:53:34.828Z,7.50
2023-02-12T18:56:06.125Z,7.50
2023-02-12T18:58:36.692Z,7.60
2023-02-12T19:01:14.555Z,7.90
2023-02-12T19:03:42.591Z,7.50
2023-02-12T19:06:10.662Z,7.20
2023-02-12T19:08:41.498Z,7.40
2023-02-12T19:11:10.753Z,7.40
2023-02-12T19:13:40.516Z,7.10
2023-02-12T19:16:09.560Z,7.50
2023-02-12T19:18:37.949Z,8.90
2023-02-12T19:21:07.371Z,7.50
2023-02-12T19:23:35.361Z,7.50
2023-02-12T19:26:04.609Z,7.50
2023-02-12T19:28:32.613Z,7.40
2023-02-12T19:31:10.700Z,7.40
2023-02-12T19:33:39.106Z,7.40
2023-02-12T19:36:08.014Z,7.40
2023-02-12T19:38:36.323Z,7.40
2023-02-12T19:41:05.013Z,7.40
2023-02-12T19:43:33.596Z,7.40
2023-02-12T19:46:09.795Z,7.40
2023-02-12T19:48:37.741Z,7.40
2023-02-12T19:51:06.768Z,7.40
2023-02-12T19:53:34.765Z,7.40
2023-02-12T19:56:03.526Z,7.40
2023-02-12T19:58:32.448Z,7.40
2023-02-12T20:01:00.726Z,8.10
2023-02-12T20:03:30.084Z,9.10
2023-02-12T20:06:02.248Z,7.40
2023-02-12T20:08:30.366Z,7.40
2023-02-12T20:10:58.445Z,7.40
2023-02-12T20:13:26.489Z,7.30
2023-02-12T20:15:54.609Z,7.40
2023-02-12T20:18:23.087Z,8.60
2023-02-12T20:20:52.319Z,7.30
2023-02-12T20:23:20.204Z,7.30
2023-02-12T20:25:48.409Z,7.30
2023-02-12T20:28:16.821Z,7.30
2023-02-12T20:30:46.462Z,7.30
2023-02-12T20:33:14.494Z,7.30
2023-02-12T20:35:42.667Z,8.30
2023-02-12T20:38:12.053Z,7.20
2023-02-12T20:40:40.236Z,8.70
2023-02-12T20:43:08.114Z,9.30
2023-02-12T20:45:36.326Z,7.30
2023-02-12T20:48:04.269Z,7.20
2023-02-12T20:50:32.191Z,7.70
2023-02-12T20:53:00.086Z,7.20
2023-02-12T20:55:29.480Z,7.20
2023-02-12T20:57:57.352Z,8.70
2023-02-12T21:00:25.394Z,7.20
2023-02-12T21:02:54.854Z,7.20
2023-02-12T21:05:22.755Z,7.20
2023-02-12T21:07:51.221Z,7.20
2023-02-12T21:10:19.293Z,7.10
2023-02-12T21:12:48.535Z,7.20
2023-02-12T21:15:16.470Z,7.20
2023-02-12T21:17:44.328Z,7.30
2023-02-12T21:20:12.548Z,7.20
2023-02-12T21:22:40.434Z,7.10
2023-02-12T21:25:08.642Z,7.10
2023-02-12T21:27:40.529Z,7.10
2023-02-12T21:30:10.654Z,7.10
2023-02-12T21:32:38.519Z,7.10
2023-02-12T21:35:06.921Z,7.10
2023-02-12T21:37:34.814Z,7.10
2023-02-12T21:40:02.693Z,7.00
2023-02-12T21:42:31.177Z,7.70
2023-02-12T21:44:59.067Z,7.00
2023-02-12T21:47:28.280Z,7.00
2023-02-12T21:49:56.165Z,7.00
2023-02-12T21:52:24.030Z,7.00
2023-02-12T21:54:53.458Z,7.00
2023-02-12T21:57:21.869Z,7.00
2023-02-12T21:59:49.746Z,7.00
2023-02-12T22:02:17.692Z,7.00
2023-02-12T22:04:46.944Z,7.00
2023-02-12T22:07:15.880Z,7.00
2023-02-12T22:09:43.748Z,6.80
2023-02-12T22:12:11.612Z,7.00
2023-02-12T22:14:39.467Z,6.90
2023-02-12T22:17:07.308Z,7.00
2023-02-12T22:19:35.325Z,6.90
2023-02-12T22:22:04.589Z,6.90
2023-02-12T22:24:32.460Z,7.40
2023-02-12T22:27:00.308Z,6.90
2023-02-12T22:29:28.269Z,6.90
2023-02-12T22:31:56.332Z,6.90
2023-02-12T22:34:24.551Z,6.90
2023-02-12T22:36:52.497Z,6.90
2023-02-12T22:39:22.331Z,6.90
2023-02-12T22:41:50.253Z,6.90
2023-02-12T22:44:21.197Z,8.00
2023-02-12T22:46:49.718Z,6.90
2023-02-12T22:49:18.009Z,6.90
2023-02-12T22:51:45.950Z,8.90
2023-02-12T22:54:15.756Z,6.80
2023-02-12T22:56:45.674Z,7.00
2023-02-12T22:59:14.029Z,6.80
2023-02-12T23:01:42.744Z,6.80
2023-02-12T23:04:15.042Z,6.80
2023-02-12T23:06:43.306Z,6.80
2023-02-12T23:09:13.509Z,6.80
2023-02-12T23:11:41.414Z,6.80
2023-02-12T23:14:10.600Z,6.80
2023-02-12T23:16:38.577Z,6.90
2023-02-12T23:19:06.544Z,6.80
2023-02-12T23:21:34.804Z,6.90
2023-02-12T23:24:02.776Z,6.90
2023-02-12T23:26:31.155Z,7.00
2023-02-12T23:28:59.562Z,7.30
2023-02-12T23:31:28.912Z,6.90
2023-02-12T23:33:56.847Z,6.80
2023-02-12T23:36:24.767Z,6.80
2023-02-12T23:38:52.675Z,8.10
2023-02-12T23:41:20.723Z,6.80
2023-02-12T23:43:48.624Z,7.60
2023-02-12T23:46:16.547Z,6.80
2023-02-12T23:48:45.870Z,6.70
2023-02-12T23:51:13.818Z,6.80
2023-02-12T23:53:41.834Z,6.80
2023-02-12T23:56:09.874Z,6.70
2023-02-12T23:58:37.762Z,6.70
